Iqaluit Airport

CYFB · 努納武特, 加拿大

METAR CYFB · 伊魁特機場

15 七月 19:00 LT
16m
罗盘
风向 的 风向 320° 伊魁特機場 17/35
风: 13 kt, 4 beaufort

13 kt

1 kt
改变
0 ft 6.000 12.000 18.000 24.000 30.000
Cloud Cloud
FEW 3.500
Cloud Cloud
FEW 25.000
METAR CYFB 152300Z 32013KT 30SM FEW035 FEW250 16/05 A2980 RMK SC1CI1 SC TR CI TR SLP094 DENSITY ALT 500FT

METAR 伊魁特機場 - CYFB/YFB

伊魁特機場是,加拿大中的中型机场。 该机场位于纬度63,75657和经度-68,55611。 该机场有一条跑道: 17/35. 本场的ICAO机场代码为CYFB。 该机场的IATA代码为YFB。 机场在Montreal FIR中。

该航空气象观测是针对伊魁特機場在2024年7月15日 19:00, 当地时间进行的。

机场观察

风向为320°,速度为13 kt。

可见度为30 mi。

有几云在3.500 ft的高度 和 几云在25.000 ft的高度。 没有观察到天花板。

温度和风寒是16 °C。 露点为5 °C,相对湿度为48%。 海平面上的气压为29,80 inHg (QNH)。

白天

今天,太阳从02:56升起,在22:24降落。 这适用于伊魁特機場,世界夏令时可能有所不同。 当地时间与世界标准时间之间的时差为-4 小时。 夏令时目前正在进行中。

公司介绍

本场上唯一已知的公司是Canadian North。

体会

到Vliegles.nl去找飞行课程,跳伞和其他飞行体验。 浏览页面,了解伊魁特機場附近所有可用的活动。 你也可以使用搜索功能来寻找你所在地附近的特定飞行课程、跳伞或其他飞行体验。

跑道

Id 标题 侧风 逆风 侧风 %
17/35 135°-315° 1 kt 13 kt 9 %

逆风成分最大的方向会被突出显示,并用于横风计算。 这并不一定意味着这个方向在使用。

乌云

3.500 ft FEW 几云
25.000 ft FEW 几云

温度 & 天气

温度 16 °C
露点 5 °C
相对湿度 48%
Kp-index 3 (0-9)

评论

SLP094海平面压力为29,81 inHg (29,81 inHg)
SC1CI1 SC TR CI TR DENSITY ALT 500FT

白天

日出
02:56
中午
12:40
日落
22:24 (3:08)

小工具

你想在你的网站上有一个关于伊魁特機場的当前航空天气(METAR)的小部件吗?

显示HTML代码
报告变更